Time;durP1;ratioP1;P1;durP2;ratioP2;P2;SDS_P1;SDS_P2;PMS_P1;PMS_P2;Temp;Humidity;BMP_temperature;BMP_pressure;BME280_temperature;BME280_humidity;BME280_pressure;Samples;Min_cycle;Max_cycle;Signal;HPM_P1;HPM_P2
2022/09/15 00:00:53;;;;;;;14.65;3.97;;;14.30;99.90;;;;;;4866830;29;20101;-61
2022/09/15 00:03:20;;;;;;;9.27;3.80;;;14.30;99.90;;;;;;4880225;29;20045;-61
2022/09/15 00:05:46;;;;;;;10.45;4.55;;;14.30;99.90;;;;;;4881009;29;20103;-61
2022/09/15 00:08:12;;;;;;;7.93;3.75;;;14.40;99.90;;;;;;4888214;29;20084;-61
2022/09/15 00:10:46;;;;;;;7.78;3.40;;;14.40;99.90;;;;;;4881150;29;20049;-61
2022/09/15 00:13:12;;;;;;;9.18;3.63;;;14.40;99.90;;;;;;4880675;29;20044;-62
2022/09/15 00:15:38;;;;;;;6.88;3.45;;;14.40;99.90;;;;;;4880839;29;20080;-61
2022/09/15 00:18:05;;;;;;;6.78;3.50;;;14.40;99.90;;;;;;4879819;29;20107;-61
2022/09/15 00:20:31;;;;;;;5.10;2.97;;;14.30;99.90;;;;;;4884143;29;20045;-62
2022/09/15 00:22:56;;;;;;;9.85;3.47;;;14.40;99.90;;;;;;4891062;29;20548;-61
2022/09/15 00:25:22;;;;;;;7.50;3.35;;;14.40;99.90;;;;;;4883173;29;20056;-62
2022/09/15 00:27:48;;;;;;;10.05;3.35;;;14.40;99.90;;;;;;4878847;29;20056;-61
2022/09/15 00:30:14;;;;;;;7.82;2.53;;;14.40;99.90;;;;;;4872550;29;20061;-61
2022/09/15 00:32:40;;;;;;;4.10;1.90;;;14.40;99.90;;;;;;4878294;29;20139;-62
2022/09/15 00:35:06;;;;;;;7.95;1.70;;;14.40;99.90;;;;;;4871179;29;20501;-62
2022/09/15 00:37:32;;;;;;;6.82;1.73;;;14.50;99.90;;;;;;4870274;29;20128;-61
2022/09/15 00:39:58;;;;;;;5.57;1.63;;;14.50;99.90;;;;;;4874979;29;20047;-62
2022/09/15 00:42:24;;;;;;;11.23;1.80;;;14.50;99.90;;;;;;4871905;29;20444;-62
2022/09/15 00:44:58;;;;;;;7.20;1.58;;;14.60;99.90;;;;;;4872015;29;20274;-62
2022/09/15 00:47:33;;;;;;;6.05;1.70;;;14.60;99.90;;;;;;4872260;29;20080;-62
2022/09/15 00:50:08;;;;;;;5.88;1.48;;;14.60;99.90;;;;;;4878360;29;20061;-62
2022/09/15 00:52:37;;;;;;;5.65;1.55;;;14.60;99.90;;;;;;4872734;29;20052;-62
2022/09/15 00:55:11;;;;;;;6.05;1.45;;;14.60;99.90;;;;;;4883376;29;20116;-61
2022/09/15 00:57:54;;;;;;;7.32;1.45;;;14.70;99.90;;;;;;4869940;29;20057;-62
2022/09/15 01:00:23;;;;;;;9.45;1.85;;;14.70;99.90;;;;;;4869778;29;20104;-61
2022/09/15 01:02:49;;;;;;;5.57;1.40;;;14.70;99.90;;;;;;4875325;29;20528;-61
2022/09/15 01:05:19;;;;;;;6.90;1.50;;;14.70;99.90;;;;;;4873013;29;20048;-61
2022/09/15 01:07:47;;;;;;;8.00;1.40;;;14.70;99.90;;;;;;4869402;29;20431;-61
2022/09/15 01:10:40;;;;;;;7.63;1.40;;;14.70;99.90;;;;;;4873662;29;20137;-62
2022/09/15 01:13:12;;;;;;;5.47;1.10;;;14.70;99.90;;;;;;4869312;29;20075;-62
2022/09/15 01:15:37;;;;;;;8.10;1.43;;;14.70;99.90;;;;;;4883062;29;20067;-62
2022/09/15 01:18:24;;;;;;;8.63;1.60;;;14.70;99.90;;;;;;4871571;29;20045;-62
2022/09/15 01:20:59;;;;;;;5.53;1.48;;;14.80;99.90;;;;;;4870995;29;20049;-62
2022/09/15 01:23:43;;;;;;;5.50;1.10;;;14.70;99.90;;;;;;4884821;29;20059;-61
2022/09/15 01:26:34;;;;;;;12.93;1.95;;;14.70;99.90;;;;;;4868285;29;20067;-62
2022/09/15 01:29:28;;;;;;;5.95;1.27;;;14.70;99.90;;;;;;4872001;29;20041;-62
2022/09/15 01:35:25;;;;;;;6.75;2.10;;;14.70;99.90;;;;;;4874888;29;20056;-61
2022/09/15 01:37:57;;;;;;;6.47;1.55;;;14.70;99.90;;;;;;4871482;29;20387;-62
2022/09/15 01:40:30;;;;;;;6.95;1.40;;;14.70;99.90;;;;;;4873488;29;20492;-62
2022/09/15 01:42:59;;;;;;;9.70;1.65;;;14.70;99.90;;;;;;4871644;29;20056;-62
2022/09/15 01:45:30;;;;;;;10.45;1.60;;;14.70;99.90;;;;;;4870662;29;20056;-62
2022/09/15 01:47:58;;;;;;;7.10;1.40;;;14.70;99.90;;;;;;4871652;29;20706;-62
2022/09/15 01:50:31;;;;;;;8.52;1.58;;;14.80;99.90;;;;;;4870634;29;20064;-62
2022/09/15 01:53:02;;;;;;;11.98;1.73;;;14.80;99.90;;;;;;4880668;29;20559;-62
2022/09/15 01:55:40;;;;;;;6.65;1.48;;;14.80;99.90;;;;;;4848551;29;20060;-61
2022/09/15 01:58:07;;;;;;;6.00;1.33;;;14.80;99.90;;;;;;4883275;29;20069;-61
2022/09/15 02:00:37;;;;;;;14.75;1.80;;;14.80;99.90;;;;;;4866444;29;20052;-61
2022/09/15 02:03:33;;;;;;;9.52;1.50;;;14.80;99.90;;;;;;4893849;29;20119;-62
2022/09/15 02:06:16;;;;;;;15.88;1.77;;;14.80;99.90;;;;;;4884131;29;20634;-61
2022/09/15 02:08:48;;;;;;;10.35;1.40;;;14.80;99.90;;;;;;4879115;29;20060;-61
2022/09/15 02:11:17;;;;;;;9.07;1.48;;;14.60;99.90;;;;;;4864237;29;20128;-61
2022/09/15 02:14:10;;;;;;;10.63;1.85;;;14.60;99.90;;;;;;4882363;29;20065;-62
2022/09/15 02:16:38;;;;;;;8.35;1.80;;;14.50;99.90;;;;;;4869579;29;20703;-62
2022/09/15 02:19:07;;;;;;;6.25;1.50;;;14.50;99.90;;;;;;4882506;29;20137;-61
2022/09/15 02:21:44;;;;;;;6.85;1.50;;;14.40;99.90;;;;;;4880976;29;20076;-61
2022/09/15 02:24:17;;;;;;;9.32;1.52;;;14.40;99.90;;;;;;4877978;29;20051;-61
2022/09/15 02:26:45;;;;;;;6.68;1.40;;;14.30;99.90;;;;;;4887684;29;20551;-61
2022/09/15 02:29:15;;;;;;;6.65;1.40;;;14.30;99.90;;;;;;4873710;29;20041;-61
2022/09/15 02:31:43;;;;;;;9.90;1.80;;;14.20;99.90;;;;;;4878801;29;20045;-62
2022/09/15 02:34:17;;;;;;;8.40;1.73;;;14.20;99.90;;;;;;4877966;29;20041;-61
2022/09/15 02:36:44;;;;;;;5.78;1.50;;;14.10;99.90;;;;;;4872517;29;20142;-61
2022/09/15 02:39:16;;;;;;;4.47;1.15;;;14.10;99.90;;;;;;4866792;29;20068;-62
2022/09/15 02:41:42;;;;;;;9.30;2.10;;;14.00;99.90;;;;;;4868866;29;20949;-61
2022/09/15 02:44:09;;;;;;;4.30;1.20;;;13.90;99.90;;;;;;4869512;29;20305;-62
2022/09/15 02:46:35;;;;;;;5.40;0.93;;;13.90;99.90;;;;;;4866763;29;20136;-61
2022/09/15 02:49:01;;;;;;;5.82;1.85;;;13.90;99.90;;;;;;4868482;29;20089;-62
2022/09/15 02:51:27;;;;;;;5.82;1.63;;;13.90;99.90;;;;;;4869216;29;20056;-61
2022/09/15 02:53:53;;;;;;;7.90;1.60;;;13.90;99.90;;;;;;4864293;29;20060;-61
2022/09/15 02:56:19;;;;;;;5.82;1.10;;;13.90;99.90;;;;;;4870881;29;20684;-61
2022/09/15 02:58:46;;;;;;;8.93;1.80;;;13.90;99.90;;;;;;4873051;29;20115;-63
2022/09/15 03:01:14;;;;;;;9.35;1.40;;;13.90;99.90;;;;;;4870929;29;20511;-61
2022/09/15 03:03:41;;;;;;;4.43;1.42;;;13.90;99.90;;;;;;4868310;29;20123;-62
2022/09/15 03:06:17;;;;;;;3.88;1.50;;;13.90;99.90;;;;;;4880688;29;20400;-62
2022/09/15 03:08:54;;;;;;;9.57;1.52;;;14.00;99.90;;;;;;4871996;29;20543;-62
2022/09/15 03:11:23;;;;;;;8.73;1.63;;;13.90;99.90;;;;;;4876943;29;20055;-62
2022/09/15 03:13:53;;;;;;;7.72;1.52;;;13.90;99.90;;;;;;4866175;29;20061;-62
2022/09/15 03:16:19;;;;;;;8.98;1.50;;;13.90;99.90;;;;;;4869317;29;20045;-62
2022/09/15 03:18:46;;;;;;;10.43;1.67;;;14.00;99.90;;;;;;4880463;29;20707;-61
2022/09/15 03:21:13;;;;;;;8.48;1.38;;;14.00;99.90;;;;;;4869683;29;20053;-61
2022/09/15 03:23:40;;;;;;;7.75;1.33;;;14.00;99.90;;;;;;4865003;29;20470;-62
2022/09/15 03:26:08;;;;;;;6.60;1.30;;;14.00;99.90;;;;;;4871240;29;20084;-62
2022/09/15 03:28:35;;;;;;;7.85;1.48;;;14.00;99.90;;;;;;4867809;29;20053;-62
2022/09/15 03:31:01;;;;;;;4.85;1.13;;;14.00;99.90;;;;;;4870669;29;20056;-62
2022/09/15 03:33:28;;;;;;;7.13;1.75;;;14.00;99.90;;;;;;4869579;29;20165;-62
2022/09/15 03:35:54;;;;;;;6.38;1.65;;;14.10;99.90;;;;;;4868037;29;20056;-62
2022/09/15 03:38:21;;;;;;;7.82;1.33;;;14.10;99.90;;;;;;4868281;29;21715;-61
2022/09/15 03:41:00;;;;;;;11.05;1.60;;;14.10;99.90;;;;;;4867931;29;20049;-61
2022/09/15 03:43:27;;;;;;;6.95;1.25;;;14.10;99.90;;;;;;4869626;29;20045;-61
2022/09/15 03:45:54;;;;;;;6.28;1.27;;;14.10;99.90;;;;;;4869279;29;20052;-62
2022/09/15 03:48:21;;;;;;;4.53;1.10;;;14.10;99.90;;;;;;4869821;29;20044;-61
2022/09/15 03:50:47;;;;;;;5.30;1.23;;;14.10;99.90;;;;;;4869397;29;20063;-62
2022/09/15 03:53:13;;;;;;;8.13;1.30;;;14.10;99.90;;;;;;4876085;29;20049;-61
2022/09/15 03:55:39;;;;;;;9.18;1.40;;;14.10;99.90;;;;;;4867203;29;20167;-62
2022/09/15 03:58:05;;;;;;;5.25;1.17;;;14.10;99.90;;;;;;4869305;29;20484;-61
2022/09/15 04:00:31;;;;;;;4.32;1.38;;;14.10;99.90;;;;;;4895055;29;20175;-61
2022/09/15 04:02:57;;;;;;;10.02;1.60;;;14.10;99.90;;;;;;4882215;29;20037;-61
2022/09/15 04:05:23;;;;;;;6.05;1.50;;;14.10;99.90;;;;;;4884625;29;20506;-61
2022/09/15 04:07:49;;;;;;;8.48;1.75;;;14.10;99.90;;;;;;4882494;29;20443;-61
2022/09/15 04:10:15;;;;;;;5.28;1.50;;;14.10;99.90;;;;;;4883551;29;20100;-61
2022/09/15 04:12:41;;;;;;;5.85;1.52;;;14.10;99.90;;;;;;4882228;29;20098;-61
2022/09/15 04:15:07;;;;;;;5.50;1.67;;;14.10;99.90;;;;;;4885343;29;20060;-61
2022/09/15 04:17:33;;;;;;;5.45;1.70;;;14.00;99.90;;;;;;4892151;29;20360;-61
2022/09/15 04:19:58;;;;;;;9.20;1.70;;;14.00;99.90;;;;;;4885583;29;20053;-61
2022/09/15 04:22:24;;;;;;;11.57;2.08;;;14.00;99.90;;;;;;4892748;29;20045;-61
2022/09/15 04:24:50;;;;;;;12.60;2.08;;;14.00;99.90;;;;;;4894320;29;20491;-61
2022/09/15 04:27:16;;;;;;;12.10;2.42;;;14.00;99.90;;;;;;4885034;29;20045;-61
2022/09/15 04:29:42;;;;;;;10.25;1.95;;;14.00;99.90;;;;;;4890551;29;20064;-62
2022/09/15 04:32:09;;;;;;;8.73;1.80;;;14.00;99.90;;;;;;4870705;29;20053;-62
2022/09/15 04:34:35;;;;;;;8.10;1.50;;;14.00;99.90;;;;;;4869760;29;20503;-62
2022/09/15 04:37:01;;;;;;;5.55;1.48;;;13.90;99.90;;;;;;4870322;29;20128;-62
2022/09/15 04:39:27;;;;;;;10.70;2.47;;;14.00;99.90;;;;;;4867323;29;20044;-62
2022/09/15 04:41:53;;;;;;;8.25;1.60;;;14.00;99.90;;;;;;4871640;29;20767;-61
2022/09/15 04:44:19;;;;;;;8.82;1.90;;;14.00;99.90;;;;;;4871264;29;20037;-62
2022/09/15 04:46:45;;;;;;;8.10;1.50;;;14.00;99.90;;;;;;4871600;29;20052;-61
2022/09/15 04:49:11;;;;;;;7.20;1.30;;;14.00;99.90;;;;;;4870584;29;20064;-61
2022/09/15 04:51:37;;;;;;;6.53;1.55;;;14.00;99.90;;;;;;4870637;29;20045;-61
2022/09/15 04:54:03;;;;;;;7.50;1.58;;;14.00;99.90;;;;;;4867434;29;20391;-61
2022/09/15 04:56:29;;;;;;;8.45;1.50;;;14.00;99.90;;;;;;4870123;29;20682;-61
2022/09/15 04:58:57;;;;;;;7.05;1.40;;;14.00;99.90;;;;;;4866674;29;20049;-62
2022/09/15 05:01:26;;;;;;;13.18;1.30;;;14.00;99.90;;;;;;4883696;29;20215;-61
2022/09/15 05:03:53;;;;;;;7.80;1.50;;;14.00;99.90;;;;;;4871971;29;20048;-62
2022/09/15 05:06:21;;;;;;;9.25;1.73;;;13.90;99.90;;;;;;4868634;29;20109;-62
2022/09/15 05:08:49;;;;;;;4.30;1.02;;;13.90;99.90;;;;;;4870019;29;20163;-62
2022/09/15 05:11:16;;;;;;;6.20;1.58;;;13.90;99.90;;;;;;4869053;29;20044;-62
2022/09/15 05:13:41;;;;;;;11.07;1.70;;;13.90;99.90;;;;;;4871128;29;20052;-61
2022/09/15 05:16:10;;;;;;;8.90;1.65;;;13.90;99.90;;;;;;4869105;29;20698;-62
2022/09/15 05:18:37;;;;;;;8.77;1.38;;;13.80;99.90;;;;;;4869064;29;20044;-61
2022/09/15 05:21:04;;;;;;;6.72;1.40;;;13.80;99.90;;;;;;4865044;29;20052;-62
2022/09/15 05:23:31;;;;;;;6.63;1.40;;;13.80;99.90;;;;;;4868925;29;20051;-62
2022/09/15 05:26:01;;;;;;;9.48;1.80;;;13.70;99.90;;;;;;4865137;29;20107;-61
2022/09/15 05:28:27;;;;;;;7.57;1.33;;;13.70;99.90;;;;;;4868344;29;20410;-62
2022/09/15 05:30:54;;;;;;;6.20;1.33;;;13.70;99.90;;;;;;4865058;29;20056;-62
2022/09/15 05:33:21;;;;;;;10.75;1.40;;;13.70;99.90;;;;;;4867573;29;20526;-61
2022/09/15 05:35:58;;;;;;;6.65;1.52;;;13.70;99.90;;;;;;4865156;29;20057;-62
2022/09/15 05:38:25;;;;;;;8.65;1.80;;;13.70;99.90;;;;;;4877687;29;20449;-62
2022/09/15 05:40:51;;;;;;;6.72;1.20;;;13.70;99.90;;;;;;4868174;29;20171;-61
2022/09/15 05:43:17;;;;;;;3.45;1.10;;;13.70;99.90;;;;;;4862718;29;22846;-61
2022/09/15 05:45:43;;;;;;;7.05;1.42;;;13.70;99.90;;;;;;4841460;29;20053;-62
2022/09/15 05:48:11;;;;;;;5.32;1.40;;;13.70;99.90;;;;;;4878220;29;20064;-62
2022/09/15 05:50:38;;;;;;;8.80;1.20;;;13.80;99.90;;;;;;4869810;29;21052;-61
2022/09/15 05:53:06;;;;;;;5.63;1.73;;;13.80;99.90;;;;;;4867629;29;20489;-62
2022/09/15 05:55:38;;;;;;;5.35;1.33;;;13.80;99.90;;;;;;4876966;29;20088;-62
2022/09/15 05:58:04;;;;;;;7.38;1.20;;;13.90;99.90;;;;;;4877188;29;20583;-62
2022/09/15 06:00:29;;;;;;;5.60;1.60;;;13.90;99.90;;;;;;4889056;29;20145;-61
2022/09/15 06:02:55;;;;;;;6.63;1.38;;;13.90;99.90;;;;;;4880178;29;20077;-61
2022/09/15 06:05:21;;;;;;;4.65;1.40;;;13.90;99.90;;;;;;4880460;29;20056;-62
2022/09/15 06:07:47;;;;;;;11.25;1.77;;;14.00;99.90;;;;;;4876169;29;20065;-62
2022/09/15 06:10:12;;;;;;;5.38;1.40;;;14.00;99.90;;;;;;4878054;29;20132;-61
2022/09/15 06:12:38;;;;;;;12.80;1.85;;;14.10;99.90;;;;;;4875556;29;20104;-62
2022/09/15 06:15:04;;;;;;;8.27;1.40;;;14.00;99.90;;;;;;4880962;29;20053;-61
2022/09/15 06:17:31;;;;;;;8.68;1.70;;;14.10;99.90;;;;;;4880178;29;20479;-61
2022/09/15 06:19:57;;;;;;;6.53;1.30;;;14.10;99.90;;;;;;4884962;29;20113;-61
2022/09/15 06:22:23;;;;;;;5.32;1.23;;;14.20;99.90;;;;;;4878516;29;20044;-61
2022/09/15 06:24:49;;;;;;;2.88;1.10;;;14.20;99.90;;;;;;4880466;29;20064;-61
2022/09/15 06:27:14;;;;;;;7.93;1.75;;;14.20;99.90;;;;;;4869156;29;20139;-59
2022/09/15 06:29:40;;;;;;;3.92;1.20;;;14.30;99.90;;;;;;4871385;29;20064;-60
2022/09/15 06:32:06;;;;;;;6.80;1.33;;;14.30;99.90;;;;;;4864617;29;20048;-60
2022/09/15 06:34:32;;;;;;;6.82;1.20;;;14.40;99.90;;;;;;4871878;29;20056;-60
2022/09/15 06:36:58;;;;;;;3.72;0.95;;;14.40;99.90;;;;;;4871641;29;20053;-61
2022/09/15 06:39:25;;;;;;;5.15;1.33;;;14.50;99.90;;;;;;4865072;29;20918;-60
2022/09/15 06:41:51;;;;;;;7.15;1.20;;;14.50;99.90;;;;;;4872744;29;20103;-61
2022/09/15 06:44:17;;;;;;;7.10;1.30;;;14.60;99.90;;;;;;4876690;29;20049;-61
2022/09/15 06:46:46;;;;;;;4.53;1.20;;;14.60;99.90;;;;;;4867798;29;20479;-59
2022/09/15 06:49:11;;;;;;;3.95;1.15;;;14.60;99.90;;;;;;4870246;29;20056;-60
2022/09/15 06:51:37;;;;;;;3.53;1.00;;;14.60;99.90;;;;;;4874454;29;20143;-61
2022/09/15 06:54:04;;;;;;;7.97;1.20;;;14.60;99.90;;;;;;4875332;29;20099;-59
2022/09/15 06:56:31;;;;;;;12.95;0.98;;;14.70;99.90;;;;;;4878471;29;20044;-61
2022/09/15 06:58:58;;;;;;;4.00;1.13;;;14.70;99.90;;;;;;4877836;29;20099;-61
2022/09/15 07:01:26;;;;;;;6.10;1.33;;;14.70;99.90;;;;;;4878065;29;20131;-61
2022/09/15 07:03:53;;;;;;;3.75;0.90;;;14.80;99.90;;;;;;4880507;29;20052;-61
2022/09/15 07:06:20;;;;;;;7.65;1.38;;;14.80;99.90;;;;;;4878582;29;20091;-61
2022/09/15 07:08:46;;;;;;;3.42;0.95;;;14.80;99.90;;;;;;4887572;29;20071;-61
2022/09/15 07:11:13;;;;;;;6.32;1.08;;;14.80;99.90;;;;;;4867884;29;20083;-60
2022/09/15 07:13:39;;;;;;;4.40;1.15;;;14.90;99.90;;;;;;4879540;29;20495;-61
2022/09/15 07:16:07;;;;;;;3.67;1.00;;;15.00;99.90;;;;;;4869896;29;20659;-61
2022/09/15 07:18:33;;;;;;;5.53;1.15;;;15.10;99.90;;;;;;4867115;29;20468;-61
2022/09/15 07:21:02;;;;;;;8.95;1.20;;;15.10;99.90;;;;;;4868371;29;20810;-59
2022/09/15 07:23:28;;;;;;;4.47;1.20;;;15.20;99.90;;;;;;4865379;29;20089;-61
2022/09/15 07:26:14;;;;;;;8.98;1.25;;;15.20;99.90;;;;;;4869767;29;20178;-62
2022/09/15 07:28:42;;;;;;;6.93;1.27;;;15.30;99.90;;;;;;4868457;29;20108;-61
2022/09/15 07:31:10;;;;;;;6.03;1.40;;;15.30;99.90;;;;;;4871877;29;20057;-61
2022/09/15 07:33:36;;;;;;;5.90;1.45;;;15.30;99.90;;;;;;4872291;29;20083;-61
2022/09/15 07:36:06;;;;;;;4.80;1.02;;;15.40;99.90;;;;;;4873672;29;20056;-61
2022/09/15 07:38:43;;;;;;;11.75;1.30;;;15.30;99.90;;;;;;4870822;29;20053;-58
2022/09/15 07:41:15;;;;;;;8.73;1.30;;;15.30;99.90;;;;;;4887052;29;20136;-61
2022/09/15 07:43:48;;;;;;;5.32;1.40;;;15.30;99.90;;;;;;4871987;29;20075;-60
2022/09/15 07:46:15;;;;;;;6.55;1.45;;;15.30;99.90;;;;;;4873206;29;20053;-59
2022/09/15 07:48:45;;;;;;;6.78;1.23;;;15.20;99.90;;;;;;4875542;29;20147;-61
2022/09/15 07:51:11;;;;;;;7.15;1.42;;;15.10;99.90;;;;;;4873699;29;20079;-61
2022/09/15 07:53:37;;;;;;;5.97;1.42;;;15.10;99.90;;;;;;4873360;29;20052;-59
2022/09/15 07:56:03;;;;;;;7.32;1.50;;;15.10;99.90;;;;;;4874081;29;20044;-61
2022/09/15 07:58:31;;;;;;;6.25;1.75;;;15.20;99.90;;;;;;4873958;29;20060;-60
2022/09/15 08:01:04;;;;;;;9.05;1.50;;;15.20;99.90;;;;;;4876680;29;20057;-61
2022/09/15 08:03:30;;;;;;;7.90;1.75;;;15.30;99.90;;;;;;4879873;29;20044;-61
2022/09/15 08:06:01;;;;;;;7.13;1.38;;;15.40;99.90;;;;;;4884271;29;20119;-60
2022/09/15 08:08:27;;;;;;;6.88;1.63;;;15.50;99.90;;;;;;4883706;29;20078;-61
2022/09/15 08:10:53;;;;;;;7.72;1.55;;;15.50;99.90;;;;;;4883280;29;20048;-61
2022/09/15 08:13:19;;;;;;;9.93;1.90;;;15.60;99.90;;;;;;4877258;29;20375;-61
2022/09/15 08:15:46;;;;;;;8.02;1.60;;;15.70;99.90;;;;;;4883752;29;20052;-61
2022/09/15 08:18:11;;;;;;;5.60;1.20;;;15.80;99.90;;;;;;4884546;29;20056;-61
2022/09/15 08:20:38;;;;;;;12.50;1.70;;;16.00;99.90;;;;;;4884437;29;20048;-61
2022/09/15 08:23:04;;;;;;;9.02;1.75;;;16.00;99.90;;;;;;4879397;29;20055;-61
2022/09/15 08:25:30;;;;;;;6.30;1.40;;;16.10;99.90;;;;;;4888687;29;20052;-61
2022/09/15 08:27:58;;;;;;;4.15;1.40;;;16.10;99.90;;;;;;4876020;29;20088;-61
2022/09/15 08:30:25;;;;;;;9.65;1.63;;;16.20;99.90;;;;;;4880641;29;20048;-60
2022/09/15 08:32:52;;;;;;;14.00;1.70;;;16.20;99.90;;;;;;4880461;29;20040;-61
2022/09/15 08:35:18;;;;;;;9.18;1.38;;;16.30;99.90;;;;;;4871883;29;20052;-60
2022/09/15 08:37:45;;;;;;;12.07;1.80;;;16.40;99.90;;;;;;4871758;29;20143;-60
2022/09/15 08:40:19;;;;;;;6.00;1.15;;;16.40;99.90;;;;;;4874385;29;20044;-61
2022/09/15 08:42:49;;;;;;;4.88;1.00;;;16.50;99.90;;;;;;4870466;29;20479;-59
2022/09/15 08:45:36;;;;;;;6.10;1.50;;;16.50;99.90;;;;;;4869064;29;20067;-61
2022/09/15 08:48:07;;;;;;;7.95;1.58;;;16.60;99.90;;;;;;4873735;29;20239;-61
2022/09/15 08:50:47;;;;;;;10.32;1.60;;;16.60;99.90;;;;;;4872300;29;20052;-61
2022/09/15 08:53:18;;;;;;;3.97;1.23;;;16.70;99.90;;;;;;4873093;29;21119;-61
2022/09/15 08:55:50;;;;;;;6.68;1.23;;;16.70;99.90;;;;;;4872341;29;20148;-61
2022/09/15 08:58:20;;;;;;;13.75;2.13;;;16.70;99.90;;;;;;4874711;29;20052;-60
2022/09/15 09:00:47;;;;;;;12.30;1.92;;;16.50;99.90;;;;;;4872009;29;20498;-60
2022/09/15 09:03:35;;;;;;;10.75;1.83;;;16.30;99.90;;;;;;4876024;29;20665;-61
2022/09/15 09:06:25;;;;;;;3.97;1.27;;;16.10;99.90;;;;;;4872702;29;20982;-61
2022/09/15 09:09:09;;;;;;;9.90;1.92;;;15.90;99.90;;;;;;4873436;29;20048;-61
2022/09/15 09:12:01;;;;;;;10.48;1.90;;;15.80;99.90;;;;;;4871555;29;20048;-59
2022/09/15 09:15:06;;;;;;;9.18;1.65;;;15.80;99.90;;;;;;4872891;29;20571;-60
2022/09/15 09:17:44;;;;;;;5.20;1.15;;;15.90;99.90;;;;;;4872460;29;20514;-57
2022/09/15 09:20:28;;;;;;;6.32;1.30;;;16.00;99.90;;;;;;4885454;29;20127;-59
2022/09/15 09:22:55;;;;;;;7.80;1.50;;;16.10;99.90;;;;;;4871202;29;20119;-60
2022/09/15 09:25:22;;;;;;;7.50;1.40;;;16.10;99.90;;;;;;4873369;29;20074;-61
2022/09/15 09:27:48;;;;;;;9.50;1.38;;;16.10;99.90;;;;;;4870887;29;20080;-59
2022/09/15 09:30:18;;;;;;;8.23;1.40;;;16.10;99.90;;;;;;4873338;29;20064;-61
2022/09/15 09:33:03;;;;;;;8.02;1.52;;;16.10;99.90;;;;;;4871400;29;20048;-61
2022/09/15 09:35:43;;;;;;;5.78;1.40;;;16.00;99.90;;;;;;4875656;29;20079;-58
2022/09/15 09:38:13;;;;;;;11.18;1.40;;;16.00;99.90;;;;;;4869013;29;20064;-59
2022/09/15 09:40:40;;;;;;;7.82;1.55;;;15.90;99.90;;;;;;4868163;29;20084;-61
2022/09/15 09:43:07;;;;;;;4.80;0.82;;;15.90;99.90;;;;;;4874039;29;20048;-61
2022/09/15 09:45:33;;;;;;;3.45;1.20;;;15.80;99.90;;;;;;4869709;29;20084;-60
2022/09/15 09:48:14;;;;;;;3.80;1.20;;;15.80;99.90;;;;;;4870577;29;20555;-61
2022/09/15 09:50:44;;;;;;;6.00;1.20;;;15.80;99.90;;;;;;4874211;29;20052;-61
2022/09/15 09:53:31;;;;;;;7.47;1.67;;;15.80;99.90;;;;;;4873044;29;20407;-61
2022/09/15 09:56:22;;;;;;;4.38;1.48;;;15.90;99.90;;;;;;4873235;29;20048;-61
2022/09/15 09:58:51;;;;;;;7.20;1.52;;;16.00;99.90;;;;;;4871062;29;20056;-61
2022/09/15 10:01:20;;;;;;;4.13;1.23;;;16.10;99.90;;;;;;4874829;29;20407;-60
2022/09/15 10:03:46;;;;;;;9.35;1.38;;;16.20;99.90;;;;;;4883166;29;20492;-61
2022/09/15 10:06:17;;;;;;;6.13;1.60;;;16.30;99.90;;;;;;4881652;29;20819;-61
2022/09/15 10:09:04;;;;;;;7.93;1.50;;;16.40;99.90;;;;;;4878497;29;20087;-61
2022/09/15 10:11:48;;;;;;;10.55;1.52;;;16.40;99.90;;;;;;4883146;29;20087;-59
2022/09/15 10:14:26;;;;;;;13.38;1.90;;;16.40;99.90;;;;;;4882079;29;20132;-60
2022/09/15 10:17:11;;;;;;;8.20;1.50;;;16.30;99.90;;;;;;4882063;29;20044;-60
2022/09/15 10:19:58;;;;;;;5.38;1.25;;;16.30;99.90;;;;;;4878869;29;20061;-61
2022/09/15 10:22:38;;;;;;;5.13;1.10;;;16.30;99.90;;;;;;4880850;29;20142;-61
2022/09/15 10:25:25;;;;;;;8.07;1.15;;;16.30;99.90;;;;;;4880052;29;20412;-60
2022/09/15 10:28:27;;;;;;;2.75;0.95;;;16.20;99.90;;;;;;4876513;29;20135;-60
2022/09/15 10:31:05;;;;;;;9.40;1.50;;;16.10;99.90;;;;;;4880455;29;20400;-61
2022/09/15 10:33:37;;;;;;;6.78;1.40;;;16.00;99.90;;;;;;4869972;29;20046;-60
2022/09/15 10:36:12;;;;;;;5.10;1.33;;;16.00;99.90;;;;;;4870265;29;20047;-60
2022/09/15 10:38:41;;;;;;;5.55;1.20;;;16.10;99.90;;;;;;4870664;29;20068;-59
2022/09/15 10:41:31;;;;;;;5.78;1.30;;;16.10;99.90;;;;;;4871330;29;20448;-59
2022/09/15 10:44:15;;;;;;;3.95;1.10;;;16.10;99.90;;;;;;4868602;29;20524;-61
2022/09/15 10:47:06;;;;;;;4.30;1.33;;;16.20;99.90;;;;;;4870159;29;20052;-60
2022/09/15 10:49:59;;;;;;;4.70;0.88;;;16.20;99.90;;;;;;4871727;29;20084;-60
2022/09/15 10:52:47;;;;;;;4.05;1.00;;;16.20;99.90;;;;;;4877532;29;20049;-61
2022/09/15 10:55:21;;;;;;;3.65;0.80;;;16.20;99.90;;;;;;4878486;29;20048;-61
2022/09/15 10:58:19;;;;;;;4.35;0.90;;;16.20;99.90;;;;;;4869221;29;20053;-60
2022/09/15 11:00:55;;;;;;;2.35;0.80;;;16.30;99.90;;;;;;4869769;29;20127;-60
2022/09/15 11:03:47;;;;;;;5.13;1.35;;;16.30;99.90;;;;;;4870806;29;20063;-59
2022/09/15 11:06:23;;;;;;;2.60;0.85;;;16.30;99.90;;;;;;4869279;29;20061;-60
2022/09/15 11:09:07;;;;;;;1.98;0.73;;;16.40;99.90;;;;;;4871379;29;20392;-61
2022/09/15 11:12:04;;;;;;;7.75;1.05;;;16.50;99.90;;;;;;4869025;29;20056;-60
2022/09/15 11:14:55;;;;;;;5.03;0.95;;;16.60;99.90;;;;;;4869938;29;20488;-60
2022/09/15 11:17:39;;;;;;;4.60;1.15;;;16.70;99.90;;;;;;4869471;29;20052;-58
2022/09/15 11:20:32;;;;;;;8.02;1.20;;;16.80;99.90;;;;;;4869636;29;20079;-61
2022/09/15 11:23:16;;;;;;;5.88;1.48;;;16.90;99.90;;;;;;4868194;29;20049;-59
2022/09/15 11:25:47;;;;;;;6.32;1.08;;;16.90;99.90;;;;;;4869394;29;20084;-58
2022/09/15 11:28:27;;;;;;;4.82;1.08;;;17.00;99.90;;;;;;4868862;29;20120;-59
2022/09/15 11:31:06;;;;;;;6.97;1.20;;;17.10;99.90;;;;;;4869791;29;20117;-60
2022/09/15 11:34:05;;;;;;;9.93;1.27;;;17.20;99.90;;;;;;4869427;29;20057;-61
2022/09/15 11:37:12;;;;;;;4.43;1.00;;;17.30;99.90;;;;;;4869543;29;20044;-61
2022/09/15 11:39:54;;;;;;;5.28;1.25;;;17.60;99.90;;;;;;4860930;29;20065;-61
2022/09/15 11:42:32;;;;;;;4.83;1.30;;;17.90;99.80;;;;;;4866860;29;20274;-61
2022/09/15 11:44:59;;;;;;;6.53;1.27;;;18.00;99.20;;;;;;4869423;29;20305;-60
2022/09/15 11:47:43;;;;;;;3.50;1.10;;;18.10;99.10;;;;;;4871043;29;20488;-61
2022/09/15 11:50:20;;;;;;;5.20;0.93;;;18.10;98.70;;;;;;4870713;29;20475;-61
2022/09/15 11:52:51;;;;;;;4.38;1.15;;;18.10;98.40;;;;;;4877985;29;20500;-59
2022/09/15 11:55:34;;;;;;;4.32;0.93;;;18.10;97.80;;;;;;4884920;29;20786;-61
2022/09/15 11:58:20;;;;;;;4.32;1.00;;;18.20;97.00;;;;;;4874494;29;20143;-61
2022/09/15 12:01:11;;;;;;;7.40;1.40;;;18.20;96.00;;;;;;4879036;29;20491;-60
2022/09/15 12:03:54;;;;;;;8.10;1.08;;;18.00;96.10;;;;;;4880432;29;20488;-61
2022/09/15 12:06:35;;;;;;;4.07;0.77;;;18.00;96.10;;;;;;4880001;29;20515;-61
2022/09/15 12:09:06;;;;;;;4.72;0.90;;;18.00;96.10;;;;;;4891986;29;20504;-61
2022/09/15 12:11:39;;;;;;;3.97;0.80;;;18.10;96.10;;;;;;4880370;29;20120;-61
2022/09/15 12:14:10;;;;;;;2.88;0.88;;;18.40;95.70;;;;;;4880509;29;20041;-61
2022/09/15 12:16:36;;;;;;;4.03;0.90;;;18.70;95.80;;;;;;4877133;29;20041;-60
2022/09/15 12:19:29;;;;;;;6.65;1.15;;;18.90;95.20;;;;;;4877391;29;20132;-60
2022/09/15 12:22:12;;;;;;;9.15;1.40;;;18.90;94.90;;;;;;4876509;29;20128;-60
2022/09/15 12:24:49;;;;;;;5.45;1.20;;;18.80;95.10;;;;;;4879491;29;20377;-59
2022/09/15 12:27:18;;;;;;;3.58;0.93;;;18.80;94.90;;;;;;4879924;29;20028;-60
2022/09/15 12:29:53;;;;;;;6.03;1.23;;;18.80;95.10;;;;;;4873634;29;20132;-59
2022/09/15 12:32:30;;;;;;;8.00;1.75;;;18.80;95.20;;;;;;4870188;29;20057;-59
2022/09/15 12:35:17;;;;;;;5.53;1.35;;;18.70;95.30;;;;;;4874585;29;20060;-61
2022/09/15 12:37:53;;;;;;;5.00;1.10;;;18.70;95.40;;;;;;4864497;29;20119;-61
2022/09/15 12:40:32;;;;;;;7.32;1.20;;;18.60;95.20;;;;;;4872180;29;20068;-61
2022/09/15 12:43:19;;;;;;;9.57;1.48;;;18.70;94.90;;;;;;4871869;29;20403;-60
2022/09/15 12:45:57;;;;;;;6.80;1.23;;;18.90;95.00;;;;;;4870410;29;21004;-60
2022/09/15 12:48:30;;;;;;;10.55;1.48;;;19.10;94.80;;;;;;4869016;29;20487;-60
2022/09/15 12:50:57;;;;;;;3.38;1.13;;;19.10;94.80;;;;;;4870493;29;20065;-61
2022/09/15 12:53:27;;;;;;;8.27;1.20;;;19.10;94.80;;;;;;4871555;29;20067;-61
2022/09/15 12:55:58;;;;;;;5.00;1.38;;;19.10;94.60;;;;;;4875363;29;20060;-59
2022/09/15 12:58:39;;;;;;;7.45;1.48;;;19.00;94.70;;;;;;4890861;29;20463;-61
2022/09/15 13:01:17;;;;;;;11.45;1.60;;;18.80;94.90;;;;;;4879128;29;20044;-61
2022/09/15 13:03:49;;;;;;;7.35;1.27;;;18.70;94.90;;;;;;4885047;29;20041;-61
2022/09/15 13:06:20;;;;;;;5.07;1.15;;;18.60;95.20;;;;;;4880816;29;20150;-61
2022/09/15 13:08:56;;;;;;;4.50;0.90;;;18.50;94.70;;;;;;4879053;29;20464;-61
2022/09/15 13:11:36;;;;;;;5.45;1.10;;;18.50;93.50;;;;;;4884579;29;20048;-61
2022/09/15 13:14:07;;;;;;;5.53;1.30;;;18.40;92.80;;;;;;4871049;29;20063;-59